createdAt,value
2018-08-28T00:01:36.327Z,98925.52
2018-08-28T00:04:04.679Z,98927.39
2018-08-28T00:06:33.022Z,98928.23
2018-08-28T00:09:01.379Z,98929.05
2018-08-28T00:11:29.736Z,98934.63
2018-08-28T00:13:58.124Z,98934.13
2018-08-28T00:16:26.481Z,98937.52
2018-08-28T00:18:54.881Z,98932.66
2018-08-28T00:21:23.158Z,98934.69
2018-08-28T00:23:51.625Z,98935.99
2018-08-28T00:26:19.935Z,98945.49
2018-08-28T00:28:48.256Z,98946.84
2018-08-28T00:31:16.618Z,98945.50
2018-08-28T00:33:44.907Z,98950.23
2018-08-28T00:36:13.294Z,98951.95
2018-08-28T00:38:41.743Z,98954.94
2018-08-28T00:41:10.158Z,98963.36
2018-08-28T00:43:38.555Z,98960.00
2018-08-28T00:46:07.126Z,98956.15
2018-08-28T00:48:35.448Z,98956.66
2018-08-28T00:51:03.792Z,98961.05
2018-08-28T00:53:32.123Z,98958.34
2018-08-28T00:56:00.489Z,98963.57
2018-08-28T00:58:28.784Z,98968.95
2018-08-28T01:00:57.119Z,98977.53
2018-08-28T01:03:25.534Z,98974.34
2018-08-28T01:06:00.648Z,98974.17
2018-08-28T01:08:28.966Z,98978.39
2018-08-28T01:10:57.359Z,98977.88
2018-08-28T01:13:25.683Z,98981.91
2018-08-28T01:15:54.061Z,98984.12
2018-08-28T01:18:22.419Z,98986.66
2018-08-28T01:20:50.852Z,98990.02
2018-08-28T01:23:19.219Z,98993.40
2018-08-28T01:25:47.519Z,98991.70
2018-08-28T01:28:15.962Z,98989.05
2018-08-28T01:30:44.390Z,98991.91
2018-08-28T01:33:12.730Z,98986.36
2018-08-28T01:35:41.035Z,98993.24
2018-08-28T01:38:09.416Z,98989.34
2018-08-28T01:40:37.713Z,98996.58
2018-08-28T01:43:11.453Z,98996.25
2018-08-28T01:45:39.770Z,99004.31
2018-08-28T01:48:08.145Z,98994.23
2018-08-28T01:50:36.498Z,98998.42
2018-08-28T01:53:04.818Z,99005.66
2018-08-28T01:55:33.190Z,99002.13
2018-08-28T01:58:01.487Z,99001.95
2018-08-28T02:00:29.830Z,98997.94
2018-08-28T02:03:04.699Z,99002.47
2018-08-28T02:05:33.031Z,99001.45
2018-08-28T02:08:01.324Z,99007.33
2018-08-28T02:10:29.631Z,99007.69
2018-08-28T02:12:57.957Z,99005.16
2018-08-28T02:15:26.262Z,99008.70
2018-08-28T02:17:54.642Z,99010.52
2018-08-28T02:20:22.993Z,99012.57
2018-08-28T02:22:51.311Z,99009.86
2018-08-28T02:25:19.655Z,99012.38
2018-08-28T02:27:48.040Z,99009.55
2018-08-28T02:30:16.370Z,99008.65
2018-08-28T02:32:44.679Z,99009.32
2018-08-28T02:35:13.024Z,99011.34
2018-08-28T02:37:41.454Z,99008.31
2018-08-28T02:40:10.245Z,99011.17
2018-08-28T02:42:38.544Z,99006.93
2018-08-28T02:45:07.472Z,99015.88
2018-08-28T02:47:35.853Z,99018.23
2018-08-28T02:50:04.220Z,99021.72
2018-08-28T02:52:32.644Z,99016.84
2018-08-28T02:55:01.008Z,99022.34
2018-08-28T02:57:29.357Z,99025.69
2018-08-28T02:59:57.673Z,99031.25
2018-08-28T03:02:26.022Z,99023.78
2018-08-28T03:04:54.356Z,99028.71
2018-08-28T03:07:22.688Z,99035.83
2018-08-28T03:09:51.055Z,99034.54
2018-08-28T03:12:19.421Z,99037.03
2018-08-28T03:14:47.749Z,99039.61
2018-08-28T03:17:16.148Z,99042.89
2018-08-28T03:19:44.502Z,99039.19
2018-08-28T03:22:12.847Z,99039.88
2018-08-28T03:24:41.199Z,99041.68
2018-08-28T03:27:09.523Z,99048.30
2018-08-28T03:29:37.855Z,99045.80
2018-08-28T03:32:06.308Z,99047.95
2018-08-28T03:34:34.635Z,99052.00
2018-08-28T03:37:03.043Z,99052.93
2018-08-28T03:39:31.350Z,99049.30
2018-08-28T03:41:59.760Z,99055.59
2018-08-28T03:44:28.127Z,99045.66
2018-08-28T03:46:56.485Z,99051.78
2018-08-28T03:49:24.872Z,99054.79
2018-08-28T03:51:53.223Z,99056.95
2018-08-28T03:54:21.545Z,99054.59
2018-08-28T03:56:49.853Z,99058.19
2018-08-28T03:59:18.210Z,99053.36
2018-08-28T04:01:46.538Z,99057.43
2018-08-28T04:04:14.870Z,99055.53
2018-08-28T04:06:43.226Z,99062.05
2018-08-28T04:09:11.763Z,99063.31
2018-08-28T04:11:40.145Z,99063.84
2018-08-28T04:14:08.442Z,99065.17
2018-08-28T04:16:36.778Z,99065.45
2018-08-28T04:19:05.427Z,99071.50
2018-08-28T04:21:33.752Z,99066.27
2018-08-28T04:24:02.181Z,99072.34
2018-08-28T04:26:30.524Z,99064.61
2018-08-28T04:28:58.839Z,99068.66
2018-08-28T04:31:27.191Z,99075.88
2018-08-28T04:33:55.489Z,99076.55
2018-08-28T04:36:23.864Z,99069.41
2018-08-28T04:38:52.260Z,99074.77
2018-08-28T04:41:20.647Z,99076.47
2018-08-28T04:43:49.011Z,99077.24
2018-08-28T04:46:17.480Z,99084.53
2018-08-28T04:48:45.892Z,99083.34
2018-08-28T04:51:14.183Z,99089.34
2018-08-28T04:53:42.502Z,99085.02
2018-08-28T04:56:10.873Z,99090.41
2018-08-28T05:00:03.780Z,99090.39
2018-08-28T05:02:36.482Z,99095.45
2018-08-28T05:05:07.317Z,99095.47
2018-08-28T05:07:35.737Z,99099.55
2018-08-28T05:10:04.561Z,99098.55
2018-08-28T05:12:32.869Z,99096.53
2018-08-28T05:15:01.215Z,99104.95
2018-08-28T05:17:29.526Z,99108.99
2018-08-28T05:19:58.077Z,99103.44
2018-08-28T05:22:26.941Z,99103.61
2018-08-28T05:24:56.059Z,99108.66
2018-08-28T05:27:24.463Z,99109.33
2018-08-28T05:29:52.758Z,99113.87
2018-08-28T05:32:21.140Z,99118.96
2018-08-28T05:34:49.509Z,99111.07
2018-08-28T05:37:18.903Z,99118.19
2018-08-28T05:39:47.250Z,99113.48
2018-08-28T05:42:15.665Z,99121.33
2018-08-28T05:44:43.979Z,99119.87
2018-08-28T05:47:12.329Z,99123.56
2018-08-28T05:49:40.773Z,99132.32
2018-08-28T05:52:09.084Z,99129.02
2018-08-28T05:54:37.503Z,99135.02
2018-08-28T05:57:05.887Z,99133.68
2018-08-28T05:59:34.236Z,99135.78
2018-08-28T06:02:02.622Z,99141.16
2018-08-28T06:04:31.911Z,99144.50
2018-08-28T06:07:01.049Z,99144.87
2018-08-28T06:09:29.394Z,99144.03
2018-08-28T06:11:57.759Z,99146.21
2018-08-28T06:14:26.126Z,99150.09
2018-08-28T06:16:54.614Z,99143.36
2018-08-28T06:19:22.952Z,99150.92
2018-08-28T06:21:51.344Z,99148.27
2018-08-28T06:24:19.669Z,99142.58
2018-08-28T06:26:48.026Z,99149.65
2018-08-28T06:29:16.369Z,99146.98
2018-08-28T06:31:45.075Z,99155.40
2018-08-28T06:34:13.605Z,99159.61
2018-08-28T06:36:41.957Z,99157.41
2018-08-28T06:39:10.816Z,99159.77
2018-08-28T06:41:39.483Z,99158.95
2018-08-28T06:44:08.058Z,99162.13
2018-08-28T06:46:36.438Z,99159.45
2018-08-28T06:49:04.819Z,99160.09
2018-08-28T06:51:33.167Z,99167.04
2018-08-28T06:54:01.518Z,99172.58
2018-08-28T06:56:29.870Z,99167.20
2018-08-28T06:58:58.218Z,99168.03
2018-08-28T07:01:26.537Z,99171.25
2018-08-28T07:03:54.973Z,99175.46
2018-08-28T07:06:23.242Z,99177.30
2018-08-28T07:08:51.574Z,99182.02
2018-08-28T07:11:20.032Z,99171.92
2018-08-28T07:13:48.350Z,99173.59
2018-08-28T07:16:16.628Z,99172.77
2018-08-28T07:18:45.098Z,99184.05
2018-08-28T07:21:13.386Z,99182.52
2018-08-28T07:23:41.771Z,99184.22
2018-08-28T07:26:10.189Z,99187.73
2018-08-28T07:28:38.470Z,99191.80
2018-08-28T07:31:06.811Z,99200.56
2018-08-28T07:33:35.134Z,99201.08
2018-08-28T07:36:03.439Z,99202.75
2018-08-28T07:38:31.855Z,99203.25
2018-08-28T07:41:00.160Z,99208.98
2018-08-28T07:43:28.498Z,99207.31
2018-08-28T07:45:56.823Z,99208.66
2018-08-28T07:48:25.180Z,99202.23
2018-08-28T07:50:53.630Z,99213.71
2018-08-28T07:53:22.019Z,99210.25
2018-08-28T07:55:50.302Z,99208.92
2018-08-28T07:58:18.638Z,99211.85
2018-08-28T08:00:47.306Z,99204.89
2018-08-28T08:03:19.868Z,99210.58
2018-08-28T08:05:48.286Z,99215.56
2018-08-28T08:08:16.634Z,99220.77
2018-08-28T08:10:44.929Z,99217.02
2018-08-28T08:13:13.320Z,99211.48
2018-08-28T08:15:41.710Z,99219.99
2018-08-28T08:18:10.031Z,99227.86
2018-08-28T08:20:38.495Z,99232.57
2018-08-28T08:23:06.787Z,99224.69
2018-08-28T08:25:35.116Z,99227.67
2018-08-28T08:28:03.638Z,99228.29
2018-08-28T08:30:31.795Z,99229.64
2018-08-28T08:33:00.405Z,99230.98
2018-08-28T08:35:28.807Z,99232.80
2018-08-28T08:37:57.174Z,99233.37
2018-08-28T08:40:25.522Z,99231.95
2018-08-28T08:42:53.843Z,99227.55
2018-08-28T08:45:22.231Z,99223.72
2018-08-28T08:47:50.555Z,99224.67
2018-08-28T08:50:18.946Z,99219.31
2018-08-28T08:52:47.374Z,99222.95
2018-08-28T08:55:15.745Z,99217.36
2018-08-28T08:57:44.043Z,99215.77
2018-08-28T09:00:12.369Z,99221.30
2018-08-28T09:02:40.670Z,99219.72
2018-08-28T09:05:09.012Z,99220.66
2018-08-28T09:07:37.319Z,99223.17
2018-08-28T09:10:06.233Z,99219.89
2018-08-28T09:12:35.589Z,99221.97
2018-08-28T09:15:04.906Z,99221.86
2018-08-28T09:17:34.526Z,99222.09
2018-08-28T09:20:03.696Z,99212.49
2018-08-28T09:22:32.736Z,99218.33
2018-08-28T09:25:02.083Z,99213.27
2018-08-28T09:27:31.407Z,99215.44
2018-08-28T09:30:00.586Z,99216.51
2018-08-28T09:32:29.874Z,99216.50
2018-08-28T09:34:58.715Z,99209.87
2018-08-28T09:37:27.599Z,99204.66
2018-08-28T09:39:57.059Z,99207.91
2018-08-28T09:42:25.918Z,99208.16
2018-08-28T09:44:55.007Z,99207.89
2018-08-28T09:47:24.102Z,99211.38
2018-08-28T09:49:53.415Z,99199.76
2018-08-28T09:52:22.094Z,99201.34
2018-08-28T09:54:50.588Z,99200.13
2018-08-28T09:57:19.688Z,99203.09
2018-08-28T09:59:48.033Z,99203.95
2018-08-28T10:02:16.355Z,99201.54
2018-08-28T10:04:44.899Z,99193.03
2018-08-28T10:07:13.725Z,99196.50
2018-08-28T10:09:42.719Z,99192.93
2018-08-28T10:12:11.813Z,99201.16
2018-08-28T10:14:40.962Z,99192.79
2018-08-28T10:17:10.153Z,99196.27
2018-08-28T10:19:39.758Z,99195.74
2018-08-28T10:22:10.515Z,99193.02
2018-08-28T10:24:39.064Z,99196.19
2018-08-28T10:27:08.685Z,99195.41
2018-08-28T10:29:37.509Z,99185.63
2018-08-28T10:32:07.036Z,99192.20
2018-08-28T10:34:35.965Z,99194.34
2018-08-28T10:37:05.541Z,99190.45
2018-08-28T10:39:33.866Z,99195.16
2018-08-28T10:42:02.200Z,99194.89
2018-08-28T10:44:30.528Z,99194.31
2018-08-28T10:46:58.914Z,99186.59
2018-08-28T10:49:27.187Z,99185.31
2018-08-28T10:51:55.521Z,99176.61
2018-08-28T10:56:51.184Z,99177.69
2018-08-28T10:59:19.497Z,99180.52
2018-08-28T11:01:47.822Z,99177.22
2018-08-28T11:04:16.167Z,99176.77
2018-08-28T11:06:44.558Z,99173.72
2018-08-28T11:09:12.921Z,99167.58
2018-08-28T11:11:41.412Z,99168.27
2018-08-28T11:14:09.703Z,99168.93
2018-08-28T11:16:38.032Z,99167.39
2018-08-28T11:19:06.391Z,99168.59
2018-08-28T11:21:34.695Z,99171.23
2018-08-28T11:24:02.983Z,99172.28
2018-08-28T11:26:31.320Z,99173.88
2018-08-28T11:28:59.604Z,99178.84
2018-08-28T11:31:28.008Z,99178.10
2018-08-28T11:33:56.460Z,99180.02
2018-08-28T11:36:24.868Z,99177.55
2018-08-28T11:38:53.302Z,99174.03
2018-08-28T11:41:21.619Z,99182.91
2018-08-28T11:43:50.003Z,99184.43
2018-08-28T11:46:18.326Z,99183.47
2018-08-28T11:48:46.642Z,99186.58
2018-08-28T11:51:15.010Z,99188.41
2018-08-28T11:53:43.363Z,99185.30
2018-08-28T11:56:11.708Z,99187.40
2018-08-28T11:58:40.045Z,99186.55
2018-08-28T12:01:08.403Z,99182.93
2018-08-28T12:03:43.109Z,99184.69
2018-08-28T12:06:11.699Z,99179.50
2018-08-28T12:08:40.001Z,99184.83
2018-08-28T12:11:08.355Z,99188.87
2018-08-28T12:13:36.632Z,99188.03
2018-08-28T12:16:05.156Z,99185.94
2018-08-28T12:18:33.486Z,99182.86
2018-08-28T12:21:01.819Z,99175.81
2018-08-28T12:23:30.184Z,99177.09
2018-08-28T12:25:58.481Z,99173.35
2018-08-28T12:28:26.850Z,99174.94
2018-08-28T12:30:55.163Z,99162.22
2018-08-28T12:33:23.543Z,99167.85
2018-08-28T12:35:51.838Z,99167.80
2018-08-28T12:38:20.155Z,99166.48
2018-08-28T12:40:48.545Z,99168.58
2018-08-28T12:43:16.843Z,99161.50
2018-08-28T12:45:45.111Z,99166.49
2018-08-28T12:48:13.492Z,99160.03
2018-08-28T12:50:41.771Z,99156.29
2018-08-28T12:53:10.309Z,99150.44
2018-08-28T12:55:38.609Z,99156.16
2018-08-28T12:58:06.994Z,99148.77
2018-08-28T13:00:35.399Z,99157.81
2018-08-28T13:03:03.722Z,99153.21
2018-08-28T13:05:32.075Z,99151.78
2018-08-28T13:08:00.376Z,99147.74
2018-08-28T13:10:28.653Z,99153.26
2018-08-28T13:12:57.115Z,99151.80
2018-08-28T13:15:25.424Z,99146.28
2018-08-28T13:17:53.750Z,99148.34
2018-08-28T13:20:22.056Z,99149.55
2018-08-28T13:22:50.517Z,99146.48
2018-08-28T13:25:18.975Z,99145.97
2018-08-28T13:27:47.295Z,99137.24
2018-08-28T13:30:15.591Z,99137.67
2018-08-28T13:32:43.905Z,99136.46
2018-08-28T13:35:12.226Z,99136.52
2018-08-28T13:37:40.529Z,99137.60
2018-08-28T13:40:10.081Z,99125.20
2018-08-28T13:42:38.398Z,99128.57
2018-08-28T13:45:06.802Z,99129.17
2018-08-28T13:47:35.215Z,99125.00
2018-08-28T13:50:03.612Z,99117.37
2018-08-28T13:52:32.094Z,99119.13
2018-08-28T13:55:00.396Z,99114.42
2018-08-28T13:57:28.779Z,99113.95
2018-08-28T13:59:57.256Z,99117.48
2018-08-28T14:02:25.486Z,99118.94
2018-08-28T14:04:53.966Z,99117.80
2018-08-28T14:07:22.331Z,99117.80
2018-08-28T14:09:50.718Z,99119.42
2018-08-28T14:12:19.170Z,99118.80
2018-08-28T14:14:47.668Z,99110.02
2018-08-28T14:17:16.245Z,99121.03
2018-08-28T14:19:44.641Z,99118.45
2018-08-28T14:22:13.406Z,99116.81
2018-08-28T14:24:41.895Z,99120.83
2018-08-28T14:27:10.216Z,99117.79
2018-08-28T14:29:38.569Z,99111.72
2018-08-28T14:32:11.949Z,99102.86
2018-08-28T14:34:42.971Z,99103.06
2018-08-28T14:37:11.337Z,99097.62
2018-08-28T14:39:39.797Z,99102.83
2018-08-28T14:42:09.758Z,99102.27
2018-08-28T14:44:38.243Z,99086.95
2018-08-28T14:47:07.054Z,99085.92
2018-08-28T14:49:35.394Z,99083.66
2018-08-28T14:52:04.119Z,99079.22
2018-08-28T14:54:32.546Z,99074.21
2018-08-28T14:57:04.005Z,99072.83
2018-08-28T14:59:32.489Z,99075.12
2018-08-28T15:02:02.503Z,99076.63
2018-08-28T15:04:30.887Z,99076.92
2018-08-28T15:06:59.659Z,99074.23
2018-08-28T15:09:28.001Z,99065.09
2018-08-28T15:11:57.163Z,99078.20
2018-08-28T15:14:25.503Z,99071.41
2018-08-28T15:16:54.000Z,99073.51
2018-08-28T15:19:22.408Z,99077.77
2018-08-28T15:21:50.813Z,99080.72
2018-08-28T15:24:19.142Z,99077.38
2018-08-28T15:26:47.417Z,99075.66
2018-08-28T15:29:15.745Z,99072.91
2018-08-28T15:31:44.444Z,99068.84
2018-08-28T15:34:13.058Z,99069.98
2018-08-28T15:36:41.527Z,99073.25
2018-08-28T15:39:09.829Z,99059.45
2018-08-28T15:41:38.179Z,99063.82
2018-08-28T15:44:06.518Z,99056.61
2018-08-28T15:46:34.850Z,99055.16
2018-08-28T15:49:03.352Z,99053.19
2018-08-28T15:51:31.829Z,99051.73
2018-08-28T15:54:00.136Z,99057.44
2018-08-28T15:56:29.149Z,99050.94
2018-08-28T15:58:57.624Z,99050.78
2018-08-28T16:01:26.113Z,99050.16
2018-08-28T16:03:54.449Z,99052.64
2018-08-28T16:06:23.286Z,99046.78
2018-08-28T16:08:51.638Z,99046.77
2018-08-28T16:11:20.099Z,99046.86
2018-08-28T16:13:48.450Z,99046.23
2018-08-28T16:16:16.771Z,99043.09
2018-08-28T16:18:45.110Z,99047.07
2018-08-28T16:21:13.407Z,99045.19
2018-08-28T16:23:45.052Z,99046.88
2018-08-28T16:26:13.305Z,99038.92
2018-08-28T16:28:41.714Z,99042.16
2018-08-28T16:31:10.396Z,99042.06
2018-08-28T16:33:38.768Z,99040.50
2018-08-28T16:36:07.462Z,99036.59
2018-08-28T16:38:35.833Z,99045.30
2018-08-28T16:41:04.209Z,99039.54
2018-08-28T16:43:32.506Z,99042.48
2018-08-28T16:46:00.833Z,99041.01
2018-08-28T16:48:29.397Z,99034.73
2018-08-28T16:50:57.749Z,99032.64
2018-08-28T16:53:26.081Z,99036.90
2018-08-28T16:55:54.569Z,99040.25
2018-08-28T16:58:23.123Z,99037.50
2018-08-28T17:00:51.573Z,99041.47
2018-08-28T17:03:19.930Z,99027.91
2018-08-28T17:05:48.210Z,99020.14
2018-08-28T17:08:17.020Z,99021.60
2018-08-28T17:10:45.418Z,99020.24
2018-08-28T17:13:13.798Z,99024.53
2018-08-28T17:15:42.319Z,99027.03
2018-08-28T17:18:10.772Z,99024.07
2018-08-28T17:20:39.234Z,99023.13
2018-08-28T17:23:07.654Z,99031.92
2018-08-28T17:25:35.972Z,99031.05
2018-08-28T17:28:04.414Z,99026.46
2018-08-28T17:30:33.262Z,99025.27
2018-08-28T17:33:01.879Z,99024.47
2018-08-28T17:35:30.221Z,99026.41
2018-08-28T17:37:58.762Z,99027.60
2018-08-28T17:40:27.184Z,99028.65
2018-08-28T17:42:55.548Z,99027.66
2018-08-28T17:45:23.918Z,99029.05
2018-08-28T17:47:52.560Z,99027.34
2018-08-28T17:50:21.016Z,99031.39
2018-08-28T17:52:49.370Z,99036.30
2018-08-28T17:55:18.505Z,99033.13
2018-08-28T17:57:47.041Z,99031.77
2018-08-28T18:00:15.417Z,99035.48
2018-08-28T18:02:43.747Z,99030.75
2018-08-28T18:05:12.329Z,99031.84
2018-08-28T18:07:40.823Z,99033.89
2018-08-28T18:10:09.460Z,99035.68
2018-08-28T18:12:37.992Z,99037.55
2018-08-28T18:15:08.119Z,99041.59
2018-08-28T18:17:36.607Z,99046.11
2018-08-28T18:20:05.326Z,99048.45
2018-08-28T18:22:34.187Z,99042.68
2018-08-28T18:25:03.028Z,99050.41
2018-08-28T18:27:31.833Z,99050.44
2018-08-28T18:30:00.420Z,99049.46
2018-08-28T18:32:28.847Z,99049.91
2018-08-28T18:34:57.331Z,99058.43
2018-08-28T18:37:25.924Z,99059.91
2018-08-28T18:39:54.339Z,99062.22
2018-08-28T18:42:23.136Z,99055.33
2018-08-28T18:44:51.667Z,99059.73
2018-08-28T18:47:20.288Z,99057.87
2018-08-28T18:49:49.085Z,99057.38
2018-08-28T18:52:17.519Z,99059.03
2018-08-28T18:54:46.345Z,99060.06
2018-08-28T18:57:14.982Z,99059.75
2018-08-28T18:59:49.976Z,99060.92
2018-08-28T19:02:24.070Z,99060.86
2018-08-28T19:04:52.740Z,99061.24
2018-08-28T19:07:23.058Z,99056.74
2018-08-28T19:10:02.326Z,99062.80
2018-08-28T19:12:33.308Z,99061.53
2018-08-28T19:15:01.732Z,99062.47
2018-08-28T19:17:36.215Z,99067.34
2018-08-28T19:20:13.704Z,99071.54
2018-08-28T19:22:46.292Z,99069.44
2018-08-28T19:25:20.383Z,99071.77
2018-08-28T19:27:49.126Z,99083.03
2018-08-28T19:30:22.362Z,99075.80
2018-08-28T19:32:53.619Z,99078.94
2018-08-28T19:35:28.941Z,99074.83
2018-08-28T19:37:57.844Z,99065.33
2018-08-28T19:40:32.333Z,99064.81
2018-08-28T19:43:05.735Z,99066.19
2018-08-28T19:45:34.774Z,99063.55
2018-08-28T19:48:06.612Z,99063.14
2018-08-28T19:50:36.622Z,99057.81
2018-08-28T19:53:11.533Z,99049.91
2018-08-28T19:55:40.738Z,99047.39
2018-08-28T19:58:10.854Z,99045.37
2018-08-28T20:00:39.226Z,99050.66
2018-08-28T20:03:07.831Z,99053.55
2018-08-28T20:05:36.249Z,99053.00
2018-08-28T20:08:04.600Z,99044.48
2018-08-28T20:10:32.957Z,99044.89
2018-08-28T20:13:01.247Z,99048.30
2018-08-28T20:15:29.610Z,99045.78
2018-08-28T20:17:58.055Z,99047.69
2018-08-28T20:20:26.475Z,99047.38
2018-08-28T20:22:54.834Z,99050.98
2018-08-28T20:28:43.939Z,99058.53
2018-08-28T20:31:12.386Z,99050.27
2018-08-28T20:33:40.833Z,99047.61
2018-08-28T20:36:09.242Z,99052.20
2018-08-28T20:38:41.019Z,99045.55
2018-08-28T20:41:09.303Z,99050.08
2018-08-28T20:43:37.895Z,99046.75
2018-08-28T20:46:06.399Z,99048.98
2018-08-28T20:48:34.681Z,99045.61
2018-08-28T20:51:03.593Z,99053.50
2018-08-28T20:53:32.090Z,99052.63
2018-08-28T20:56:00.625Z,99051.86
2018-08-28T20:58:29.028Z,99048.80
2018-08-28T21:00:57.434Z,99045.33
2018-08-28T21:03:25.743Z,99049.86
2018-08-28T21:05:54.094Z,99053.67
2018-08-28T21:08:23.382Z,99047.76
2018-08-28T21:10:52.182Z,99040.21
2018-08-28T21:13:20.790Z,99036.45
2018-08-28T21:15:49.517Z,99040.86
2018-08-28T21:18:18.262Z,99041.84
2018-08-28T21:20:46.615Z,99038.83
2018-08-28T21:23:14.914Z,99033.62
2018-08-28T21:25:43.316Z,99033.36
2018-08-28T21:28:11.644Z,99034.46
2018-08-28T21:30:40.029Z,99041.58
2018-08-28T21:33:08.339Z,99032.94
2018-08-28T21:36:10.790Z,99030.83
2018-08-28T21:38:39.166Z,99029.57
2018-08-28T21:41:07.522Z,99034.35
2018-08-28T21:43:36.263Z,99033.62
2018-08-28T21:46:04.594Z,99031.33
2018-08-28T21:48:32.960Z,99030.79
2018-08-28T21:51:01.386Z,99033.76
2018-08-28T21:53:29.790Z,99028.74
2018-08-28T21:55:58.162Z,99031.58
2018-08-28T21:58:26.502Z,99027.75
2018-08-28T22:01:00.335Z,99023.80
2018-08-28T22:03:28.657Z,99029.79
2018-08-28T22:05:56.966Z,99023.20
2018-08-28T22:08:25.288Z,99019.49
2018-08-28T22:10:53.577Z,99019.87
2018-08-28T22:13:22.011Z,99023.62
2018-08-28T22:15:50.269Z,99023.62
2018-08-28T22:18:18.793Z,99020.92
2018-08-28T22:20:52.508Z,99021.16
2018-08-28T22:23:20.869Z,99023.86
2018-08-28T22:25:49.186Z,99019.17
2018-08-28T22:28:17.518Z,99025.83
2018-08-28T22:30:45.924Z,99016.88
2018-08-28T22:33:14.389Z,99012.34
2018-08-28T22:35:42.926Z,99015.59
2018-08-28T22:38:11.315Z,99014.52
2018-08-28T22:40:39.630Z,99012.64
2018-08-28T22:43:07.906Z,99015.66
2018-08-28T22:45:36.840Z,99010.09
2018-08-28T22:48:05.620Z,99019.25
2018-08-28T22:50:33.990Z,99013.24
2018-08-28T22:53:02.273Z,99007.56
2018-08-28T22:55:30.650Z,99000.65
2018-08-28T22:57:58.924Z,98996.14
2018-08-28T23:00:27.240Z,99005.52
2018-08-28T23:02:56.246Z,99004.31
2018-08-28T23:05:24.619Z,98995.95
2018-08-28T23:07:53.008Z,98996.58
2018-08-28T23:10:21.641Z,98991.95
2018-08-28T23:12:50.527Z,98987.36
2018-08-28T23:15:19.024Z,98987.16
2018-08-28T23:17:47.423Z,98987.98
2018-08-28T23:20:15.744Z,98988.33
2018-08-28T23:22:44.406Z,98982.16
2018-08-28T23:25:12.749Z,98980.89
2018-08-28T23:27:41.140Z,98973.51
2018-08-28T23:30:09.661Z,98968.86
2018-08-28T23:32:38.089Z,98969.55
2018-08-28T23:35:06.629Z,98966.95
2018-08-28T23:37:34.954Z,98961.83
2018-08-28T23:40:03.338Z,98956.73
2018-08-28T23:42:31.618Z,98959.83
2018-08-28T23:44:59.936Z,98961.09
2018-08-28T23:47:28.259Z,98958.00
2018-08-28T23:49:56.599Z,98961.23
2018-08-28T23:52:24.938Z,98956.56
2018-08-28T23:54:53.238Z,98957.23
2018-08-28T23:57:21.556Z,98953.03
2018-08-28T23:59:49.858Z,98951.77
